createdAt,value
2022-09-12T01:59:27.711Z,1.73
2022-09-12T02:08:48.153Z,1.93
2022-09-12T02:13:13.569Z,2.50
2022-09-12T02:47:53.954Z,0.90
2022-09-12T02:52:52.693Z,1.03
2022-09-12T04:04:52.676Z,2.90
2022-09-12T04:18:22.630Z,2.40
2022-09-12T04:22:35.412Z,2.20
2022-09-12T04:27:02.033Z,1.70
2022-09-12T05:46:45.553Z,2.53
2022-09-12T05:51:41.290Z,1.83
2022-09-12T06:01:41.230Z,2.17
2022-09-12T06:26:37.951Z,3.10
2022-09-12T06:35:42.934Z,1.93
2022-09-12T06:39:56.055Z,2.53
2022-09-12T06:58:49.846Z,1.47
2022-09-12T07:03:36.464Z,1.57
2022-09-12T07:12:43.667Z,1.33
2022-09-12T07:17:13.646Z,1.13
2022-09-12T07:59:54.945Z,2.73
2022-09-12T08:09:09.405Z,1.10
2022-09-12T08:17:43.927Z,1.60
2022-09-12T08:21:58.985Z,1.30
2022-09-12T08:46:03.503Z,2.30
2022-09-12T13:26:15.866Z,3.00
2022-09-12T15:17:02.309Z,2.33
2022-09-12T15:21:49.926Z,2.27
2022-09-12T15:35:36.844Z,2.13
2022-09-12T15:40:01.582Z,3.60
2022-09-12T15:44:21.203Z,3.97
2022-09-12T15:48:41.444Z,3.57
2022-09-12T16:07:28.344Z,4.40
2022-09-12T16:12:03.145Z,4.13
2022-09-12T16:16:52.244Z,4.93
2022-09-12T16:21:45.103Z,4.20
2022-09-12T16:26:09.250Z,4.20
2022-09-12T16:30:35.585Z,5.90
2022-09-12T16:35:10.706Z,4.30
2022-09-12T16:44:56.426Z,3.23
2022-09-12T16:49:15.966Z,4.43
2022-09-12T17:07:20.307Z,3.47
2022-09-12T17:11:36.845Z,5.20
2022-09-12T17:15:47.355Z,3.27
2022-09-12T17:19:58.045Z,4.83
2022-09-12T17:24:08.724Z,4.70
2022-09-12T17:28:18.183Z,4.40
2022-09-12T17:32:27.707Z,4.83
2022-09-12T17:36:39.647Z,5.07
2022-09-12T17:40:59.452Z,4.53
2022-09-12T17:45:17.727Z,4.43
2022-09-12T17:49:32.708Z,4.07
2022-09-12T17:53:44.145Z,4.23
2022-09-12T18:07:56.624Z,8.10
2022-09-12T18:12:42.266Z,6.37
2022-09-12T18:16:55.025Z,5.17
2022-09-12T18:21:27.325Z,6.97
2022-09-12T18:25:46.005Z,5.23
2022-09-12T18:30:24.867Z,5.47
2022-09-12T18:39:29.245Z,4.83
2022-09-12T18:43:46.224Z,8.47
2022-09-12T18:48:01.624Z,6.33
2022-09-12T18:52:11.048Z,5.77
2022-09-12T18:56:32.728Z,5.43
2022-09-12T19:00:42.914Z,8.10
2022-09-12T19:04:53.672Z,3.13
2022-09-12T19:09:07.337Z,6.83
2022-09-12T19:13:17.868Z,6.23
2022-09-12T20:24:04.899Z,7.30
2022-09-12T20:28:15.367Z,6.17
2022-09-12T20:32:25.349Z,6.87
2022-09-12T20:36:35.629Z,5.73
2022-09-12T20:40:52.367Z,4.43
2022-09-12T20:45:07.167Z,6.87
2022-09-12T20:49:30.287Z,3.97
2022-09-12T20:53:39.611Z,8.30
2022-09-12T20:57:55.788Z,4.73
2022-09-12T21:06:43.928Z,4.47
2022-09-12T21:30:15.156Z,4.73
2022-09-12T21:43:37.927Z,4.83
2022-09-12T21:47:59.747Z,4.57
2022-09-12T21:52:15.607Z,4.87
2022-09-12T21:56:28.988Z,4.57
2022-09-12T22:00:44.928Z,4.73
2022-09-12T22:04:58.009Z,6.17
2022-09-12T22:09:10.768Z,4.07
2022-09-12T22:13:27.570Z,4.93
2022-09-12T22:17:43.029Z,8.47
2022-09-12T22:22:10.108Z,6.97
2022-09-12T22:26:24.507Z,3.67
2022-09-12T22:30:38.113Z,3.60
2022-09-12T22:34:56.809Z,5.03
2022-09-12T22:39:09.430Z,3.60
2022-09-12T22:43:21.467Z,4.30
2022-09-12T22:47:34.649Z,3.97
2022-09-12T22:51:48.619Z,4.20
2022-09-12T22:56:04.160Z,5.43
2022-09-12T23:00:16.321Z,4.77
2022-09-12T23:04:28.300Z,5.00
2022-09-12T23:08:44.160Z,3.80
2022-09-12T23:12:55.561Z,4.17
2022-09-12T23:17:05.978Z,4.63
2022-09-12T23:21:20.021Z,4.57
2022-09-12T23:25:33.440Z,3.60
2022-09-12T23:29:44.662Z,3.70
2022-09-12T23:33:57.860Z,3.43
2022-09-12T23:38:12.634Z,4.23
2022-09-12T23:42:29.960Z,3.87
2022-09-12T23:46:41.278Z,4.23
2022-09-12T23:50:52.943Z,6.17
2022-09-12T23:55:05.720Z,4.73
2022-09-12T23:59:17.344Z,4.77
